createdAt,value
2017-06-29T00:01:28.202Z,72.10
2017-06-29T00:03:56.315Z,72.30
2017-06-29T00:06:24.803Z,73.60
2017-06-29T00:08:53.626Z,73.40
2017-06-29T00:11:22.591Z,72.70
2017-06-29T00:13:50.696Z,71.30
2017-06-29T00:16:18.763Z,70.10
2017-06-29T00:18:47.311Z,70.30
2017-06-29T00:21:15.335Z,70.10
2017-06-29T00:23:44.167Z,70.00
2017-06-29T00:26:13.108Z,70.00
2017-06-29T00:28:41.142Z,69.60
2017-06-29T00:31:09.223Z,69.70
2017-06-29T00:33:37.418Z,69.70
2017-06-29T00:36:05.887Z,69.70
2017-06-29T00:38:33.946Z,69.70
2017-06-29T00:41:02.024Z,69.60
2017-06-29T00:43:30.070Z,69.30
2017-06-29T00:45:58.211Z,70.10
2017-06-29T00:48:26.256Z,70.70
2017-06-29T00:50:54.715Z,70.90
2017-06-29T00:53:22.798Z,70.60
2017-06-29T00:55:50.902Z,70.70
2017-06-29T00:58:19.024Z,70.30
2017-06-29T01:00:47.103Z,70.50
2017-06-29T01:03:15.181Z,70.30
2017-06-29T01:05:43.280Z,70.90
2017-06-29T01:08:11.351Z,70.90
2017-06-29T01:10:40.343Z,70.90
2017-06-29T01:13:08.426Z,71.10
2017-06-29T01:15:36.570Z,70.90
2017-06-29T01:18:05.075Z,71.00
2017-06-29T01:20:33.229Z,72.10
2017-06-29T01:23:01.307Z,72.60
2017-06-29T01:25:29.384Z,72.70
2017-06-29T01:27:57.975Z,73.00
2017-06-29T01:30:26.387Z,73.20
2017-06-29T01:32:54.389Z,73.30
2017-06-29T01:35:22.478Z,73.00
2017-06-29T01:37:50.583Z,72.80
2017-06-29T01:40:18.729Z,72.90
2017-06-29T01:42:47.238Z,73.20
2017-06-29T01:45:15.772Z,74.30
2017-06-29T01:47:43.891Z,74.00
2017-06-29T01:50:11.964Z,74.00
2017-06-29T01:52:40.043Z,74.10
2017-06-29T01:55:08.894Z,75.50
2017-06-29T01:57:41.129Z,76.10
2017-06-29T02:00:09.968Z,76.80
2017-06-29T02:02:38.033Z,76.90
2017-06-29T02:05:06.115Z,76.90
2017-06-29T02:07:34.287Z,77.00
2017-06-29T02:10:02.359Z,76.80
2017-06-29T02:12:30.496Z,76.40
2017-06-29T02:14:59.021Z,76.10
2017-06-29T02:17:27.159Z,76.40
2017-06-29T02:19:56.037Z,76.80
2017-06-29T02:22:24.842Z,75.80
2017-06-29T02:24:52.923Z,75.10
2017-06-29T02:27:21.810Z,74.90
2017-06-29T02:29:49.875Z,74.30
2017-06-29T02:32:17.935Z,75.00
2017-06-29T02:34:46.019Z,75.00
2017-06-29T02:37:14.507Z,75.30
2017-06-29T02:39:43.363Z,75.40
2017-06-29T02:42:11.913Z,75.40
2017-06-29T02:44:40.142Z,76.00
2017-06-29T02:47:08.638Z,76.20
2017-06-29T02:49:36.747Z,77.20
2017-06-29T02:52:04.840Z,78.90
2017-06-29T02:54:33.026Z,80.30
2017-06-29T02:57:01.106Z,81.80
2017-06-29T02:59:30.328Z,82.60
2017-06-29T03:01:59.239Z,84.50
2017-06-29T03:04:27.328Z,84.70
2017-06-29T03:06:55.492Z,85.50
2017-06-29T03:09:23.656Z,85.80
2017-06-29T03:11:51.825Z,86.70
2017-06-29T03:14:20.672Z,86.50
2017-06-29T03:16:49.106Z,86.40
2017-06-29T03:19:17.183Z,86.40
2017-06-29T03:21:45.246Z,85.60
2017-06-29T03:24:13.414Z,83.90
2017-06-29T03:26:41.498Z,83.20
2017-06-29T03:29:09.678Z,82.90
2017-06-29T03:31:37.811Z,84.20
2017-06-29T03:34:05.880Z,83.10
2017-06-29T03:36:34.694Z,82.20
2017-06-29T03:39:03.563Z,82.10
2017-06-29T03:41:31.623Z,83.10
2017-06-29T03:44:00.075Z,84.10
2017-06-29T03:46:28.175Z,84.20
2017-06-29T03:48:56.240Z,86.10
2017-06-29T03:51:25.076Z,85.60
2017-06-29T03:53:53.278Z,84.20
2017-06-29T03:56:21.386Z,84.90
2017-06-29T03:58:50.225Z,85.60
2017-06-29T04:01:18.707Z,87.20
2017-06-29T04:03:46.768Z,86.40
2017-06-29T04:06:14.826Z,84.90
2017-06-29T04:08:43.300Z,84.90
2017-06-29T04:11:11.358Z,85.10
2017-06-29T04:13:40.223Z,86.00
2017-06-29T04:16:08.388Z,84.50
2017-06-29T04:18:36.430Z,84.90
2017-06-29T04:21:04.522Z,85.00
2017-06-29T04:23:32.610Z,84.10
2017-06-29T04:26:01.067Z,83.60
2017-06-29T04:28:29.236Z,83.50
2017-06-29T04:30:57.282Z,83.50
2017-06-29T04:33:25.344Z,83.60
2017-06-29T04:35:53.453Z,82.50
2017-06-29T04:38:21.539Z,84.30
2017-06-29T04:40:49.991Z,84.50
2017-06-29T04:43:18.492Z,87.30
2017-06-29T04:45:46.559Z,85.40
2017-06-29T04:48:15.030Z,85.20
2017-06-29T04:50:43.123Z,83.90
2017-06-29T04:53:11.586Z,84.30
2017-06-29T04:55:40.116Z,84.80
2017-06-29T04:58:08.919Z,85.00
2017-06-29T05:00:36.988Z,84.60
2017-06-29T05:03:05.896Z,86.00
2017-06-29T05:05:33.989Z,85.00
2017-06-29T05:08:02.815Z,84.90
2017-06-29T05:10:32.444Z,86.30
2017-06-29T05:13:00.954Z,85.50
2017-06-29T05:15:29.143Z,86.40
2017-06-29T05:17:57.318Z,87.50
2017-06-29T05:20:26.552Z,88.10
2017-06-29T05:22:54.588Z,86.80
2017-06-29T05:25:22.675Z,89.80
2017-06-29T05:27:50.760Z,89.60
2017-06-29T05:30:18.888Z,90.40
2017-06-29T05:32:46.928Z,90.60
2017-06-29T05:35:15.386Z,90.40
2017-06-29T05:37:43.514Z,90.60
2017-06-29T05:40:11.830Z,90.90
2017-06-29T05:42:40.437Z,90.50
2017-06-29T05:45:08.997Z,90.20
2017-06-29T05:47:37.095Z,90.60
2017-06-29T05:50:05.203Z,91.00
2017-06-29T05:52:33.680Z,90.20
2017-06-29T05:55:01.787Z,91.00
2017-06-29T05:59:59.308Z,90.70
2017-06-29T06:02:28.154Z,91.60
2017-06-29T06:04:56.240Z,91.20
2017-06-29T06:07:24.346Z,90.80
2017-06-29T06:09:52.936Z,90.80
2017-06-29T06:12:21.608Z,90.90
2017-06-29T06:14:50.100Z,91.10
2017-06-29T06:17:18.625Z,90.80
2017-06-29T06:19:47.857Z,91.10
2017-06-29T06:22:16.003Z,90.80
2017-06-29T06:24:44.079Z,90.50
2017-06-29T06:27:12.575Z,90.60
2017-06-29T06:29:41.027Z,90.60
2017-06-29T06:32:09.519Z,90.60
2017-06-29T06:34:37.642Z,90.30
2017-06-29T06:37:06.459Z,90.30
2017-06-29T06:39:34.595Z,90.00
2017-06-29T06:42:02.719Z,90.00
2017-06-29T06:44:30.839Z,89.70
2017-06-29T06:46:59.681Z,89.10
2017-06-29T06:49:28.131Z,88.80
2017-06-29T06:51:56.219Z,88.40
2017-06-29T06:54:24.282Z,88.40
2017-06-29T06:56:52.338Z,87.50
2017-06-29T06:59:21.179Z,86.80
2017-06-29T07:01:49.263Z,87.20
2017-06-29T07:04:17.352Z,87.10
2017-06-29T07:06:45.406Z,87.80
2017-06-29T07:09:13.618Z,86.50
2017-06-29T07:11:42.251Z,85.70
2017-06-29T07:14:10.319Z,85.20
2017-06-29T07:16:38.407Z,85.80
2017-06-29T07:19:06.462Z,85.70
2017-06-29T07:21:34.519Z,83.90
2017-06-29T07:24:02.605Z,83.70
2017-06-29T07:26:30.664Z,82.00
2017-06-29T07:28:58.722Z,83.00
2017-06-29T07:31:26.799Z,85.20
2017-06-29T07:33:54.879Z,86.80
2017-06-29T07:36:22.934Z,86.40
2017-06-29T07:38:51.022Z,84.10
2017-06-29T07:41:19.087Z,82.90
2017-06-29T07:43:47.147Z,83.50
2017-06-29T07:46:15.232Z,82.70
2017-06-29T07:48:43.290Z,82.50
2017-06-29T07:51:11.354Z,82.20
2017-06-29T07:53:39.438Z,81.20
2017-06-29T07:56:07.527Z,82.50
2017-06-29T07:58:37.106Z,81.20
2017-06-29T08:01:05.172Z,81.20
2017-06-29T08:03:34.107Z,82.30
2017-06-29T08:06:02.180Z,81.50
2017-06-29T08:08:30.234Z,81.10
2017-06-29T08:10:58.321Z,80.80
2017-06-29T08:13:26.372Z,81.90
2017-06-29T08:15:54.467Z,81.00
2017-06-29T08:18:22.926Z,81.10
2017-06-29T08:20:50.986Z,81.00
2017-06-29T08:23:19.087Z,77.90
2017-06-29T08:25:47.138Z,77.00
2017-06-29T08:28:15.200Z,77.80
2017-06-29T08:30:43.286Z,78.20
2017-06-29T08:33:12.111Z,76.40
2017-06-29T08:35:40.194Z,76.60
2017-06-29T08:38:08.298Z,76.20
2017-06-29T08:40:37.187Z,73.70
2017-06-29T08:43:06.124Z,78.30
2017-06-29T08:45:34.949Z,73.70
2017-06-29T08:48:03.038Z,72.70
2017-06-29T08:50:31.859Z,71.40
2017-06-29T08:52:59.920Z,71.40
2017-06-29T08:55:28.043Z,71.60
2017-06-29T08:57:56.098Z,73.20
2017-06-29T09:00:24.202Z,73.70
2017-06-29T09:02:52.370Z,73.30
2017-06-29T09:05:20.499Z,75.60
2017-06-29T09:07:48.759Z,77.10
2017-06-29T09:10:16.886Z,75.20
2017-06-29T09:12:45.380Z,75.50
2017-06-29T09:15:14.303Z,71.80
2017-06-29T09:17:43.099Z,72.70
2017-06-29T09:20:11.175Z,72.90
2017-06-29T09:22:39.267Z,71.50
2017-06-29T09:25:07.364Z,71.10
2017-06-29T09:27:35.510Z,70.60
2017-06-29T09:30:03.580Z,71.20
2017-06-29T09:32:31.647Z,69.80
2017-06-29T09:34:59.732Z,70.60
2017-06-29T09:37:27.879Z,71.90
2017-06-29T09:39:55.903Z,68.60
2017-06-29T09:42:23.958Z,69.20
2017-06-29T09:44:52.798Z,70.40
2017-06-29T09:47:20.879Z,70.50
2017-06-29T09:49:48.962Z,67.60
2017-06-29T09:52:17.014Z,67.10
2017-06-29T09:54:45.075Z,64.70
2017-06-29T09:57:13.923Z,66.10
2017-06-29T09:59:42.763Z,65.20
2017-06-29T10:02:11.606Z,66.50
2017-06-29T10:04:39.692Z,65.90
2017-06-29T10:07:08.554Z,63.20
2017-06-29T10:09:37.046Z,63.90
2017-06-29T10:12:05.087Z,62.40
2017-06-29T10:14:33.190Z,61.30
2017-06-29T10:17:01.270Z,62.80
2017-06-29T10:19:30.138Z,62.20
2017-06-29T10:21:58.211Z,59.50
2017-06-29T10:24:26.270Z,60.20
2017-06-29T10:26:54.346Z,59.30
2017-06-29T10:29:22.402Z,58.00
2017-06-29T10:31:50.479Z,58.10
2017-06-29T10:34:18.582Z,57.60
2017-06-29T10:36:46.639Z,57.60
2017-06-29T10:39:15.467Z,58.50
2017-06-29T10:41:43.556Z,57.50
2017-06-29T10:44:11.634Z,57.70
2017-06-29T10:46:40.500Z,57.00
2017-06-29T10:49:08.575Z,57.50
2017-06-29T10:51:36.735Z,58.30
2017-06-29T10:54:04.798Z,59.30
2017-06-29T10:56:32.850Z,58.70
2017-06-29T10:59:01.031Z,58.40
2017-06-29T11:01:29.200Z,58.40
2017-06-29T11:03:57.364Z,56.10
2017-06-29T11:06:25.448Z,57.20
2017-06-29T11:08:53.582Z,55.00
2017-06-29T11:11:21.622Z,54.60
2017-06-29T11:13:49.726Z,55.00
2017-06-29T11:16:18.574Z,54.80
2017-06-29T11:18:46.651Z,54.10
2017-06-29T11:21:14.719Z,53.30
2017-06-29T11:23:42.791Z,52.70
2017-06-29T11:26:10.879Z,53.10
2017-06-29T11:28:38.934Z,53.60
2017-06-29T11:31:07.010Z,52.30
2017-06-29T11:33:35.101Z,52.10
2017-06-29T11:36:03.161Z,51.90
2017-06-29T11:38:31.223Z,50.70
2017-06-29T11:40:59.303Z,50.30
2017-06-29T11:43:27.402Z,50.00
2017-06-29T11:45:56.289Z,49.50
2017-06-29T11:48:24.439Z,50.70
2017-06-29T11:50:52.541Z,51.30
2017-06-29T11:53:21.419Z,52.60
2017-06-29T11:55:49.494Z,53.00
2017-06-29T11:58:17.582Z,51.70
2017-06-29T12:00:46.483Z,53.30
2017-06-29T12:03:14.566Z,53.40
2017-06-29T12:05:42.654Z,49.80
2017-06-29T12:08:10.719Z,49.50
2017-06-29T12:10:38.786Z,51.30
2017-06-29T12:13:06.876Z,51.60
2017-06-29T12:15:34.954Z,50.60
2017-06-29T12:18:03.077Z,49.40
2017-06-29T12:20:31.542Z,50.80
2017-06-29T12:22:59.736Z,51.40
2017-06-29T12:25:27.768Z,51.40
2017-06-29T12:27:55.826Z,50.40
2017-06-29T12:30:23.955Z,50.50
2017-06-29T12:32:52.093Z,50.30
2017-06-29T12:35:20.621Z,50.70
2017-06-29T12:37:48.707Z,49.80
2017-06-29T12:40:16.964Z,49.10
2017-06-29T12:42:45.827Z,48.10
2017-06-29T12:45:13.895Z,45.40
2017-06-29T12:47:42.085Z,45.80
2017-06-29T12:50:10.167Z,45.20
2017-06-29T12:52:38.999Z,46.20
2017-06-29T12:55:07.150Z,44.10
2017-06-29T12:57:35.290Z,43.90
2017-06-29T13:00:03.420Z,43.90
2017-06-29T13:02:31.586Z,41.70
2017-06-29T13:04:59.659Z,42.20
2017-06-29T13:07:27.835Z,41.10
2017-06-29T13:09:55.980Z,41.90
2017-06-29T13:12:24.135Z,40.60
2017-06-29T13:14:52.650Z,40.20
2017-06-29T13:17:20.846Z,38.80
2017-06-29T13:19:48.962Z,39.30
2017-06-29T13:22:17.874Z,41.40
2017-06-29T13:24:45.937Z,40.60
2017-06-29T13:27:14.913Z,40.80
2017-06-29T13:29:42.924Z,39.10
2017-06-29T13:32:10.987Z,39.50
2017-06-29T13:34:39.075Z,40.50
2017-06-29T13:37:07.247Z,39.70
2017-06-29T13:39:35.356Z,39.50
2017-06-29T13:42:03.391Z,39.90
2017-06-29T13:44:31.479Z,40.70
2017-06-29T13:46:59.534Z,38.10
2017-06-29T13:49:27.594Z,35.80
2017-06-29T13:51:55.675Z,37.30
2017-06-29T13:54:23.758Z,38.30
2017-06-29T13:56:51.811Z,37.80
2017-06-29T13:59:19.866Z,38.60
2017-06-29T14:01:47.961Z,38.20
2017-06-29T14:04:16.042Z,34.50
2017-06-29T14:06:44.099Z,35.10
2017-06-29T14:09:12.155Z,35.60
2017-06-29T14:11:40.255Z,37.30
2017-06-29T14:14:08.319Z,35.80
2017-06-29T14:16:36.406Z,34.90
2017-06-29T14:19:04.578Z,34.90
2017-06-29T14:21:32.668Z,35.20
2017-06-29T14:24:00.715Z,35.90
2017-06-29T14:26:29.211Z,35.30
2017-06-29T14:28:57.266Z,32.60
2017-06-29T14:31:25.363Z,35.00
2017-06-29T14:33:53.422Z,35.60
2017-06-29T14:36:22.247Z,35.90
2017-06-29T14:38:50.399Z,36.80
2017-06-29T14:41:18.859Z,36.10
2017-06-29T14:43:46.922Z,35.20
2017-06-29T14:46:15.111Z,34.30
2017-06-29T14:48:43.600Z,34.40
2017-06-29T14:51:11.687Z,32.60
2017-06-29T14:53:39.758Z,32.50
2017-06-29T14:56:07.819Z,33.10
2017-06-29T14:58:35.874Z,33.30
2017-06-29T15:01:03.950Z,32.50
2017-06-29T15:03:32.130Z,33.40
2017-06-29T15:06:00.307Z,32.50
2017-06-29T15:08:28.375Z,32.50
2017-06-29T15:10:56.435Z,33.00
2017-06-29T15:13:24.560Z,30.90
2017-06-29T15:15:52.607Z,29.70
2017-06-29T15:18:20.765Z,28.40
2017-06-29T15:20:48.878Z,26.70
2017-06-29T15:23:17.035Z,24.40
2017-06-29T15:25:45.150Z,24.10
2017-06-29T15:28:13.620Z,26.20
2017-06-29T15:30:41.726Z,23.80
2017-06-29T15:33:09.830Z,24.10
2017-06-29T15:35:37.928Z,24.40
2017-06-29T15:38:06.059Z,26.30
2017-06-29T15:40:34.150Z,28.40
2017-06-29T15:43:02.199Z,28.60
2017-06-29T15:45:30.398Z,29.70
2017-06-29T15:47:58.538Z,32.50
2017-06-29T15:50:26.627Z,34.00
2017-06-29T15:52:54.678Z,35.90
2017-06-29T15:55:22.739Z,41.50
2017-06-29T15:57:50.819Z,43.30
2017-06-29T16:00:18.878Z,44.20
2017-06-29T16:02:46.939Z,44.60
2017-06-29T16:05:15.771Z,45.30
2017-06-29T16:07:43.851Z,45.70
2017-06-29T16:10:11.911Z,45.60
2017-06-29T16:12:40.379Z,45.60
2017-06-29T16:15:08.446Z,46.10
2017-06-29T16:17:36.555Z,46.60
2017-06-29T16:20:04.611Z,45.90
2017-06-29T16:22:32.666Z,45.20
2017-06-29T16:25:01.507Z,43.50
2017-06-29T16:27:29.572Z,45.30
2017-06-29T16:29:57.662Z,45.00
2017-06-29T16:32:26.491Z,44.90
2017-06-29T16:34:54.555Z,44.00
2017-06-29T16:37:22.653Z,44.50
2017-06-29T16:39:50.683Z,43.70
2017-06-29T16:42:18.758Z,43.50
2017-06-29T16:44:46.818Z,44.50
2017-06-29T16:47:15.302Z,45.40
2017-06-29T16:49:44.123Z,46.30
2017-06-29T16:52:12.183Z,45.70
2017-06-29T16:54:40.263Z,44.70
2017-06-29T16:57:08.351Z,45.50
2017-06-29T16:59:36.806Z,44.90
2017-06-29T17:02:04.859Z,45.70
2017-06-29T17:04:33.382Z,45.60
2017-06-29T17:07:02.218Z,45.40
2017-06-29T17:09:31.886Z,46.80
2017-06-29T17:12:00.008Z,47.00
2017-06-29T17:14:28.905Z,47.80
2017-06-29T17:16:56.984Z,48.20
2017-06-29T17:19:25.408Z,47.70
2017-06-29T17:21:53.544Z,47.60
2017-06-29T17:24:21.735Z,48.00
2017-06-29T17:26:50.278Z,47.90
2017-06-29T17:29:18.404Z,46.60
2017-06-29T17:31:46.513Z,46.00
2017-06-29T17:34:14.783Z,43.50
2017-06-29T17:36:43.334Z,43.80
2017-06-29T17:39:11.423Z,43.10
2017-06-29T17:41:39.882Z,44.80
2017-06-29T17:44:08.016Z,44.30
2017-06-29T17:46:36.955Z,45.00
2017-06-29T17:49:05.116Z,46.20
2017-06-29T17:51:33.159Z,46.00
2017-06-29T17:54:02.167Z,45.60
2017-06-29T17:56:30.244Z,45.50
2017-06-29T17:58:59.099Z,47.30
2017-06-29T18:01:27.206Z,46.60
2017-06-29T18:03:55.290Z,46.10
2017-06-29T18:06:23.441Z,47.10
2017-06-29T18:08:51.526Z,46.20
2017-06-29T18:11:19.659Z,45.80
2017-06-29T18:13:47.777Z,46.70
2017-06-29T18:16:16.262Z,45.80
2017-06-29T18:18:44.351Z,46.30
2017-06-29T18:21:12.856Z,47.30
2017-06-29T18:23:40.931Z,47.90
2017-06-29T18:26:09.016Z,48.40
2017-06-29T18:28:37.539Z,48.50
2017-06-29T18:31:05.630Z,49.20
2017-06-29T18:33:33.699Z,49.00
2017-06-29T18:36:01.795Z,48.40
2017-06-29T18:38:29.924Z,48.40
2017-06-29T18:40:58.066Z,48.20
2017-06-29T18:43:26.203Z,47.70
2017-06-29T18:45:54.278Z,48.00
2017-06-29T18:48:22.439Z,49.00
2017-06-29T18:50:50.506Z,48.80
2017-06-29T18:53:18.578Z,49.10
2017-06-29T18:55:46.719Z,50.50
2017-06-29T18:58:15.538Z,50.90
2017-06-29T19:00:43.594Z,51.80
2017-06-29T19:03:12.095Z,51.80
2017-06-29T19:05:40.163Z,52.10
2017-06-29T19:08:08.239Z,52.60
2017-06-29T19:10:37.136Z,52.80
2017-06-29T19:13:05.199Z,52.70
2017-06-29T19:15:33.283Z,52.30
2017-06-29T19:18:02.168Z,52.50
2017-06-29T19:20:31.044Z,52.80
2017-06-29T19:22:59.547Z,52.40
2017-06-29T19:25:27.715Z,51.90
2017-06-29T19:27:56.631Z,52.80
2017-06-29T19:30:24.704Z,52.90
2017-06-29T19:32:52.850Z,53.50
2017-06-29T19:35:21.330Z,53.80
2017-06-29T19:37:49.417Z,54.40
2017-06-29T19:40:17.498Z,54.90
2017-06-29T19:42:45.592Z,54.80
2017-06-29T19:45:13.655Z,56.00
2017-06-29T19:47:41.747Z,56.70
2017-06-29T19:50:10.583Z,57.30
2017-06-29T19:52:38.646Z,56.40
2017-06-29T19:55:06.728Z,56.50
2017-06-29T19:57:34.847Z,56.90
2017-06-29T20:00:03.675Z,57.70
2017-06-29T20:02:31.818Z,57.50
2017-06-29T20:05:00.733Z,58.70
2017-06-29T20:07:28.798Z,58.30
2017-06-29T20:09:57.641Z,58.00
2017-06-29T20:12:25.788Z,58.00
2017-06-29T20:14:53.860Z,58.20
2017-06-29T20:17:21.954Z,58.20
2017-06-29T20:19:50.039Z,57.90
2017-06-29T20:22:18.172Z,57.20
2017-06-29T20:24:46.307Z,57.20
2017-06-29T20:27:15.150Z,57.80
2017-06-29T20:29:43.361Z,57.80
2017-06-29T20:32:11.946Z,58.70
2017-06-29T20:34:41.302Z,58.90
2017-06-29T20:37:09.379Z,59.00
2017-06-29T20:39:37.467Z,59.20
2017-06-29T20:42:05.636Z,59.20
2017-06-29T20:44:33.708Z,58.60
2017-06-29T20:47:01.759Z,58.40
2017-06-29T20:49:29.836Z,58.70
2017-06-29T20:51:57.899Z,59.30
2017-06-29T20:54:25.983Z,59.30
2017-06-29T20:56:54.062Z,59.70
2017-06-29T20:59:22.131Z,59.50
2017-06-29T21:01:50.194Z,59.90
2017-06-29T21:04:18.283Z,59.70
2017-06-29T21:06:46.350Z,59.80
2017-06-29T21:09:14.505Z,59.90
2017-06-29T21:11:42.622Z,60.20
2017-06-29T21:14:12.055Z,59.80
2017-06-29T21:16:40.131Z,59.70
2017-06-29T21:19:08.990Z,60.00
2017-06-29T21:21:37.132Z,59.90
2017-06-29T21:24:05.219Z,60.30
2017-06-29T21:26:33.336Z,59.90
2017-06-29T21:29:02.287Z,62.00
2017-06-29T21:31:30.346Z,61.90
2017-06-29T21:33:58.479Z,61.90
2017-06-29T21:36:26.538Z,61.60
2017-06-29T21:38:54.600Z,62.00
2017-06-29T21:41:23.447Z,63.60
2017-06-29T21:43:51.506Z,63.70
2017-06-29T21:46:19.621Z,63.70
2017-06-29T21:48:47.723Z,64.50
2017-06-29T21:51:15.825Z,64.60
2017-06-29T21:53:43.878Z,65.20
2017-06-29T21:56:12.071Z,64.30
2017-06-29T21:58:40.180Z,64.30
2017-06-29T22:01:08.320Z,64.30
2017-06-29T22:03:36.491Z,64.50
2017-06-29T22:06:04.920Z,65.40
2017-06-29T22:08:33.018Z,64.30
2017-06-29T22:11:01.127Z,64.70
2017-06-29T22:13:29.279Z,65.50
2017-06-29T22:15:58.172Z,66.00
2017-06-29T22:18:26.219Z,65.90
2017-06-29T22:20:54.706Z,66.20
2017-06-29T22:23:23.623Z,67.10
2017-06-29T22:25:51.733Z,67.00
2017-06-29T22:28:19.822Z,67.40
2017-06-29T22:30:48.326Z,67.50
2017-06-29T22:33:17.126Z,67.90
2017-06-29T22:35:45.214Z,67.80
2017-06-29T22:38:13.274Z,68.40
2017-06-29T22:40:41.367Z,68.60
2017-06-29T22:43:09.450Z,68.60
2017-06-29T22:45:37.610Z,68.50
2017-06-29T22:48:05.684Z,69.10
2017-06-29T22:50:33.738Z,70.00
2017-06-29T22:53:01.810Z,70.10
2017-06-29T22:55:30.676Z,70.20
2017-06-29T22:57:58.726Z,70.30
2017-06-29T23:00:27.582Z,71.00
2017-06-29T23:02:56.186Z,70.80
2017-06-29T23:05:24.227Z,69.90
2017-06-29T23:07:52.283Z,70.20
2017-06-29T23:10:20.817Z,70.50
2017-06-29T23:12:48.887Z,70.90
2017-06-29T23:15:16.993Z,71.10
2017-06-29T23:17:45.864Z,71.60
2017-06-29T23:20:13.942Z,69.20
2017-06-29T23:22:42.082Z,68.70
2017-06-29T23:25:10.975Z,69.50
2017-06-29T23:27:39.111Z,70.00
2017-06-29T23:30:07.983Z,69.80
2017-06-29T23:32:36.082Z,68.90
2017-06-29T23:35:04.184Z,69.20
2017-06-29T23:37:32.314Z,70.10
2017-06-29T23:40:00.515Z,70.50
2017-06-29T23:42:28.702Z,69.50
2017-06-29T23:44:56.862Z,68.70
2017-06-29T23:47:24.874Z,68.30
2017-06-29T23:49:53.366Z,67.80
2017-06-29T23:52:22.305Z,68.80
2017-06-29T23:54:50.346Z,68.30
2017-06-29T23:57:18.427Z,68.00
2017-06-29T23:59:46.594Z,68.60
